createdAt,value
2023-05-08T00:02:26.646Z,40.09
2023-05-08T00:04:59.551Z,39.88
2023-05-08T00:07:30.903Z,39.84
2023-05-08T00:10:04.187Z,40.02
2023-05-08T00:12:36.925Z,39.77
2023-05-08T00:15:07.644Z,39.56
2023-05-08T00:17:36.792Z,39.27
2023-05-08T00:20:10.951Z,38.87
2023-05-08T00:22:42.528Z,38.92
2023-05-08T00:25:17.328Z,38.72
2023-05-08T00:27:46.518Z,38.67
2023-05-08T00:30:32.743Z,38.55
2023-05-08T00:33:05.573Z,38.68
2023-05-08T00:35:39.809Z,38.79
2023-05-08T00:38:09.092Z,39.00
2023-05-08T00:40:46.103Z,38.94
2023-05-08T00:43:15.595Z,38.91
2023-05-08T00:45:48.808Z,38.91
2023-05-08T00:48:18.975Z,38.81
2023-05-08T00:50:51.523Z,39.06
2023-05-08T00:53:22.592Z,38.84
2023-05-08T00:55:52.520Z,38.66
2023-05-08T00:58:23.020Z,38.81
2023-05-08T01:00:55.074Z,38.92
2023-05-08T01:03:35.946Z,38.90
2023-05-08T01:06:10.769Z,39.14
2023-05-08T01:08:39.721Z,39.18
2023-05-08T01:11:30.159Z,39.18
2023-05-08T01:14:12.361Z,39.55
2023-05-08T01:17:10.341Z,39.58
2023-05-08T01:20:09.358Z,39.72
2023-05-08T01:22:56.870Z,39.98
2023-05-08T01:26:05.967Z,40.09
2023-05-08T01:28:58.437Z,40.51
2023-05-08T01:31:33.713Z,40.52
2023-05-08T01:34:15.650Z,40.43
2023-05-08T01:36:52.447Z,40.65
2023-05-08T01:39:35.502Z,40.78
2023-05-08T01:42:30.405Z,40.66
2023-05-08T01:45:01.799Z,40.69
2023-05-08T01:47:34.746Z,40.88
2023-05-08T01:50:06.912Z,40.92
2023-05-08T01:52:49.301Z,40.77
2023-05-08T01:55:27.151Z,41.24
2023-05-08T01:57:59.695Z,41.29
2023-05-08T02:00:32.157Z,41.08
2023-05-08T02:03:01.929Z,40.94
2023-05-08T02:05:34.537Z,40.85
2023-05-08T02:08:02.833Z,41.00
2023-05-08T02:10:32.908Z,41.14
2023-05-08T02:13:04.608Z,40.86
2023-05-08T02:15:38.070Z,41.07
2023-05-08T02:18:10.371Z,41.13
2023-05-08T02:20:44.249Z,41.18
2023-05-08T02:23:17.314Z,41.03
2023-05-08T02:25:46.639Z,41.04
2023-05-08T02:28:15.906Z,41.02
2023-05-08T02:30:51.658Z,41.26
2023-05-08T02:33:25.260Z,41.30
2023-05-08T02:35:56.400Z,41.43
2023-05-08T02:38:25.271Z,41.39
2023-05-08T02:41:01.976Z,41.47
2023-05-08T02:43:36.492Z,41.39
2023-05-08T02:46:13.868Z,41.61
2023-05-08T02:49:00.823Z,41.80
2023-05-08T02:52:12.574Z,41.57
2023-05-08T02:55:33.832Z,41.43
2023-05-08T02:58:24.179Z,41.10
2023-05-08T03:00:59.826Z,41.38
2023-05-08T03:03:49.648Z,41.51
2023-05-08T03:06:24.146Z,41.37
2023-05-08T03:08:54.232Z,41.50
2023-05-08T03:11:28.409Z,41.47
2023-05-08T03:14:02.761Z,41.17
2023-05-08T03:16:37.021Z,40.98
2023-05-08T03:19:34.942Z,40.74
2023-05-08T03:22:06.383Z,40.55
2023-05-08T03:24:37.266Z,40.30
2023-05-08T03:27:05.917Z,40.57
2023-05-08T03:29:42.123Z,40.60
2023-05-08T03:32:12.660Z,40.42
2023-05-08T03:34:48.408Z,40.68
2023-05-08T03:37:20.166Z,40.72
2023-05-08T03:39:52.407Z,40.59
2023-05-08T03:42:24.982Z,40.35
2023-05-08T03:44:55.841Z,40.45
2023-05-08T03:47:26.504Z,40.48
2023-05-08T03:49:57.161Z,40.21
2023-05-08T03:52:33.823Z,40.11
2023-05-08T03:58:25.050Z,40.35
2023-05-08T04:01:27.909Z,40.12
2023-05-08T04:04:12.015Z,39.56
2023-05-08T04:07:31.031Z,39.41
2023-05-08T04:10:37.788Z,39.61
2023-05-08T04:13:29.579Z,39.83
2023-05-08T04:16:23.007Z,39.52
2023-05-08T04:19:02.055Z,39.48
2023-05-08T04:21:32.150Z,39.44
2023-05-08T04:24:02.733Z,39.33
2023-05-08T04:26:34.742Z,39.36
2023-05-08T04:29:32.103Z,39.21
2023-05-08T04:32:08.842Z,39.01
2023-05-08T04:34:47.730Z,39.00
2023-05-08T04:37:32.207Z,38.41
2023-05-08T04:40:11.081Z,38.29
2023-05-08T04:42:50.380Z,38.45
2023-05-08T04:45:51.330Z,38.39
2023-05-08T04:48:31.555Z,38.14
2023-05-08T04:51:07.783Z,37.56
2023-05-08T04:53:47.318Z,37.36
2023-05-08T04:56:15.032Z,37.30
2023-05-08T04:58:55.049Z,37.04
2023-05-08T05:01:49.563Z,37.09
2023-05-08T05:04:32.816Z,36.99
2023-05-08T05:07:31.769Z,36.28
2023-05-08T05:10:03.314Z,36.15
2023-05-08T05:12:48.033Z,36.50
2023-05-08T05:15:32.939Z,36.69
2023-05-08T05:18:20.731Z,36.77
2023-05-08T05:20:56.357Z,36.48
2023-05-08T05:23:56.145Z,36.23
2023-05-08T05:26:28.412Z,36.63
2023-05-08T05:29:23.718Z,36.79
2023-05-08T05:34:40.382Z,36.85
2023-05-08T05:37:14.796Z,36.76
2023-05-08T05:39:48.382Z,36.52
2023-05-08T05:42:18.692Z,36.42
2023-05-08T05:45:18.862Z,36.41
2023-05-08T05:47:57.771Z,36.47
2023-05-08T05:50:52.833Z,36.38
2023-05-08T05:53:32.111Z,35.74
2023-05-08T05:56:11.202Z,35.42
2023-05-08T05:58:44.426Z,35.32
2023-05-08T06:01:17.519Z,34.94
2023-05-08T06:03:49.187Z,35.11
2023-05-08T06:06:43.290Z,34.88
2023-05-08T06:09:20.958Z,34.88
2023-05-08T06:12:07.848Z,34.54
2023-05-08T06:14:48.131Z,33.73
2023-05-08T06:17:58.451Z,33.95
2023-05-08T06:20:28.337Z,34.34
2023-05-08T06:23:12.694Z,34.66
2023-05-08T06:26:11.031Z,35.06
2023-05-08T06:28:47.704Z,34.61
2023-05-08T06:31:27.516Z,34.73
2023-05-08T06:33:59.415Z,35.05
2023-05-08T06:36:33.086Z,34.98
2023-05-08T06:39:12.238Z,34.59
2023-05-08T06:41:51.497Z,34.92
2023-05-08T06:44:32.238Z,34.75
2023-05-08T06:47:03.479Z,34.58
2023-05-08T06:49:42.670Z,34.80
2023-05-08T06:52:49.490Z,35.19
2023-05-08T06:55:50.085Z,35.17
2023-05-08T06:58:39.354Z,35.51
2023-05-08T07:01:15.026Z,35.44
2023-05-08T07:04:54.768Z,35.05
2023-05-08T07:11:21.505Z,34.43
2023-05-08T07:13:59.867Z,33.68
2023-05-08T07:17:30.865Z,33.72
2023-05-08T07:21:00.748Z,33.94
2023-05-08T07:24:06.937Z,33.73
2023-05-08T07:26:37.852Z,33.39
2023-05-08T07:30:05.328Z,33.45
2023-05-08T07:32:55.860Z,33.47
2023-05-08T07:35:31.005Z,33.38
2023-05-08T07:38:08.488Z,32.91
2023-05-08T07:41:00.967Z,32.30
2023-05-08T07:43:41.234Z,32.01
2023-05-08T07:46:30.630Z,31.44
2023-05-08T07:49:08.051Z,31.39
2023-05-08T07:51:45.035Z,31.73
2023-05-08T07:54:16.907Z,31.78
2023-05-08T07:56:56.331Z,32.24
2023-05-08T07:59:30.958Z,32.67
2023-05-08T08:02:09.972Z,32.93
2023-05-08T08:04:42.779Z,32.64
2023-05-08T08:07:23.402Z,32.38
2023-05-08T08:10:04.198Z,31.21
2023-05-08T08:12:38.733Z,30.95
2023-05-08T08:15:28.292Z,30.74
2023-05-08T08:18:02.758Z,29.79
2023-05-08T08:20:49.307Z,29.35
2023-05-08T08:23:19.803Z,29.76
2023-05-08T08:25:56.081Z,29.54
2023-05-08T08:28:29.260Z,29.45
2023-05-08T08:31:02.591Z,29.86
2023-05-08T08:33:42.596Z,29.81
2023-05-08T08:37:12.292Z,30.01
2023-05-08T08:39:45.921Z,29.58
2023-05-08T08:42:25.067Z,29.27
2023-05-08T08:44:56.067Z,28.80
2023-05-08T08:47:33.954Z,28.62
2023-05-08T08:50:40.281Z,28.80
2023-05-08T08:53:45.574Z,28.88
2023-05-08T08:56:24.982Z,29.09
2023-05-08T08:59:05.450Z,28.98
2023-05-08T09:02:28.981Z,28.34
2023-05-08T09:05:05.142Z,28.28
2023-05-08T09:07:42.935Z,28.28
2023-05-08T09:10:26.463Z,28.73
2023-05-08T09:13:28.463Z,28.84
2023-05-08T09:16:18.648Z,29.28
2023-05-08T09:19:20.989Z,29.38
2023-05-08T09:22:49.025Z,29.55
2023-05-08T09:25:19.902Z,29.09
2023-05-08T09:27:56.878Z,28.63
2023-05-08T09:30:30.537Z,28.58
2023-05-08T09:33:13.977Z,28.42
2023-05-08T09:36:33.442Z,28.56
2023-05-08T09:39:13.469Z,28.36
2023-05-08T09:42:00.918Z,28.87
2023-05-08T09:44:53.971Z,28.87
2023-05-08T09:47:25.873Z,28.77
2023-05-08T09:50:26.793Z,28.89
2023-05-08T09:52:58.497Z,28.54
2023-05-08T09:55:51.433Z,28.61
2023-05-08T09:58:32.477Z,28.40
2023-05-08T10:01:12.366Z,27.82
2023-05-08T10:03:52.722Z,27.54
2023-05-08T10:06:55.904Z,27.58
2023-05-08T10:09:51.020Z,27.41
2023-05-08T10:12:48.886Z,27.82
2023-05-08T10:15:27.004Z,27.93
2023-05-08T10:18:07.790Z,27.59
2023-05-08T10:20:48.936Z,27.96
2023-05-08T10:23:21.167Z,28.16
2023-05-08T10:26:21.141Z,28.05
2023-05-08T10:29:00.626Z,28.15
2023-05-08T10:31:41.228Z,27.69
2023-05-08T10:34:21.305Z,26.86
2023-05-08T10:37:03.278Z,26.58
2023-05-08T10:40:06.656Z,26.50
2023-05-08T10:42:41.212Z,27.27
2023-05-08T10:45:55.151Z,27.60
2023-05-08T10:49:08.523Z,27.25
2023-05-08T10:52:50.015Z,27.24
2023-05-08T10:55:42.124Z,27.15
2023-05-08T10:58:49.298Z,27.35
2023-05-08T11:02:22.303Z,27.79
2023-05-08T11:05:16.738Z,27.33
2023-05-08T11:08:23.739Z,26.94
2023-05-08T11:11:43.137Z,26.79
2023-05-08T11:14:17.955Z,27.42
2023-05-08T11:17:09.986Z,27.43
2023-05-08T11:19:56.746Z,27.50
2023-05-08T11:22:33.628Z,27.33
2023-05-08T11:25:44.161Z,27.19
2023-05-08T11:28:16.086Z,26.93
2023-05-08T11:30:54.049Z,26.85
2023-05-08T11:33:44.404Z,26.77
2023-05-08T11:36:40.143Z,26.89
2023-05-08T11:39:20.940Z,26.48
2023-05-08T11:42:38.175Z,26.50
2023-05-08T11:45:16.342Z,26.84
2023-05-08T11:47:58.711Z,26.35
2023-05-08T11:50:31.567Z,26.49
2023-05-08T11:53:22.585Z,26.76
2023-05-08T11:55:55.869Z,26.35
2023-05-08T11:59:24.388Z,26.09
2023-05-08T12:02:09.499Z,26.11
2023-05-08T12:05:28.413Z,26.53
2023-05-08T12:08:02.862Z,26.69
2023-05-08T12:11:00.310Z,26.20
2023-05-08T12:13:44.113Z,25.93
2023-05-08T12:16:16.590Z,25.94
2023-05-08T12:18:54.283Z,26.04
2023-05-08T12:22:00.002Z,26.11
2023-05-08T12:24:35.313Z,26.39
2023-05-08T12:27:15.440Z,26.29
2023-05-08T12:30:18.599Z,26.66
2023-05-08T12:32:55.017Z,27.08
2023-05-08T12:35:30.826Z,26.55
2023-05-08T12:38:17.697Z,25.42
2023-05-08T12:41:05.998Z,24.93
2023-05-08T12:44:28.870Z,24.75
2023-05-08T12:47:13.628Z,25.36
2023-05-08T12:49:50.658Z,25.38
2023-05-08T12:53:42.537Z,26.00
2023-05-08T12:56:23.940Z,26.40
2023-05-08T12:59:04.321Z,26.74
2023-05-08T13:01:51.415Z,26.32
2023-05-08T13:05:09.193Z,25.74
2023-05-08T13:08:19.295Z,25.81
2023-05-08T13:11:17.276Z,26.04
2023-05-08T13:13:56.233Z,25.53
2023-05-08T13:16:53.499Z,25.08
2023-05-08T13:19:31.371Z,25.29
2023-05-08T13:22:12.435Z,25.48
2023-05-08T13:24:51.392Z,25.71
2023-05-08T13:27:45.912Z,25.45
2023-05-08T13:30:51.489Z,24.98
2023-05-08T13:34:18.757Z,24.51
2023-05-08T13:37:51.354Z,25.17
2023-05-08T13:41:42.935Z,25.76
2023-05-08T13:44:46.382Z,25.15
2023-05-08T13:48:13.378Z,25.73
2023-05-08T13:51:09.488Z,25.92
2023-05-08T13:54:06.812Z,24.97
2023-05-08T13:57:34.462Z,24.59
2023-05-08T14:00:43.318Z,24.80
2023-05-08T14:04:04.621Z,24.64
2023-05-08T14:07:34.233Z,24.41
2023-05-08T14:10:29.211Z,24.51
2023-05-08T14:13:34.232Z,24.74
2023-05-08T14:16:16.262Z,24.61
2023-05-08T14:19:04.807Z,24.74
2023-05-08T14:21:54.887Z,24.02
2023-05-08T14:24:38.413Z,23.87
2023-05-08T14:32:34.006Z,24.37
2023-05-08T14:35:22.670Z,24.07
2023-05-08T14:38:23.866Z,23.78
2023-05-08T14:41:26.645Z,23.60
2023-05-08T14:44:05.205Z,24.00
2023-05-08T14:47:38.497Z,23.91
2023-05-08T14:50:27.727Z,23.61
2023-05-08T14:53:18.539Z,24.08
2023-05-08T14:59:31.748Z,24.76
2023-05-08T15:07:05.013Z,24.96
2023-05-08T15:09:52.906Z,24.30
2023-05-08T15:30:03.190Z,25.19
2023-05-08T16:08:57.726Z,27.92
2023-05-08T16:12:24.283Z,27.78
2023-05-08T16:23:30.408Z,29.07
2023-05-08T16:26:11.193Z,28.79
2023-05-08T16:29:07.227Z,29.15
2023-05-08T16:32:02.755Z,29.01
2023-05-08T16:34:38.871Z,29.00
2023-05-08T16:37:29.498Z,29.07
2023-05-08T16:40:13.668Z,29.40
2023-05-08T16:43:50.528Z,29.50
2023-05-08T16:47:14.599Z,29.37
2023-05-08T16:49:54.701Z,29.49
2023-05-08T16:52:35.517Z,29.56
2023-05-08T16:55:13.712Z,29.59
2023-05-08T16:59:05.153Z,29.37
2023-05-08T17:02:21.700Z,29.09
2023-05-08T17:05:18.792Z,29.73
2023-05-08T17:23:06.565Z,30.99
2023-05-08T17:26:12.205Z,31.08
2023-05-08T17:29:03.360Z,30.89
2023-05-08T17:31:48.265Z,31.03
2023-05-08T17:34:55.205Z,31.33
2023-05-08T17:38:18.413Z,31.36
2023-05-08T17:41:25.580Z,31.15
2023-05-08T17:45:04.872Z,31.11
2023-05-08T17:47:54.633Z,31.94
2023-05-08T17:52:37.559Z,32.47
2023-05-08T17:55:31.772Z,31.89
2023-05-08T18:28:37.192Z,33.63
2023-05-08T18:31:24.105Z,33.87
2023-05-08T18:38:25.458Z,33.69
2023-05-08T18:41:49.247Z,33.86
2023-05-08T18:44:28.955Z,34.34
2023-05-08T18:47:59.494Z,34.69
2023-05-08T18:50:44.772Z,35.21
2023-05-08T18:53:25.760Z,35.63
2023-05-08T18:57:14.902Z,35.50
2023-05-08T19:00:20.253Z,36.36
2023-05-08T19:03:20.996Z,36.45
2023-05-08T19:09:09.548Z,37.25
2023-05-08T19:12:03.174Z,37.91
2023-05-08T19:14:37.473Z,38.09
2023-05-08T19:17:55.659Z,38.45
2023-05-08T19:25:15.484Z,38.41
2023-05-08T19:28:07.578Z,38.25
2023-05-08T19:31:34.782Z,38.16
2023-05-08T19:35:23.630Z,38.52
2023-05-08T19:39:25.977Z,39.09
2023-05-08T19:42:15.984Z,39.10
2023-05-08T19:50:03.565Z,39.20
2023-05-08T19:52:50.086Z,39.00
2023-05-08T19:55:32.733Z,38.67
2023-05-08T19:58:33.428Z,38.91
2023-05-08T20:01:40.520Z,38.85
2023-05-08T20:05:18.747Z,39.08
2023-05-08T20:08:00.206Z,38.95
2023-05-08T20:10:52.020Z,38.83
2023-05-08T20:13:35.223Z,39.13
2023-05-08T20:16:29.786Z,39.38
2023-05-08T20:19:28.431Z,39.43
2023-05-08T20:30:43.499Z,39.82
2023-05-08T20:40:58.207Z,40.58
2023-05-08T20:43:51.949Z,41.05
2023-05-08T20:46:44.471Z,41.14
2023-05-08T20:49:28.830Z,41.33
2023-05-08T20:52:15.585Z,41.02
2023-05-08T20:55:45.190Z,40.49
2023-05-08T20:58:42.712Z,40.00
2023-05-08T21:01:21.139Z,39.85
2023-05-08T21:05:21.791Z,40.05
2023-05-08T21:08:01.472Z,40.11
2023-05-08T21:11:13.775Z,40.47
2023-05-08T21:14:00.278Z,40.58
2023-05-08T21:16:35.010Z,40.44
2023-05-08T21:19:15.728Z,40.27
2023-05-08T21:22:01.826Z,40.08
2023-05-08T21:24:36.121Z,39.94
2023-05-08T21:27:15.785Z,40.00
2023-05-08T21:30:00.237Z,40.01
2023-05-08T21:32:35.436Z,40.25
2023-05-08T21:35:14.250Z,40.19
2023-05-08T21:38:36.417Z,40.08
2023-05-08T21:41:09.444Z,40.32
2023-05-08T21:43:49.084Z,40.55
2023-05-08T21:46:46.065Z,40.58
2023-05-08T21:49:25.344Z,40.99
2023-05-08T21:52:01.333Z,40.76
2023-05-08T21:54:46.568Z,40.74
2023-05-08T21:57:43.252Z,40.83
2023-05-08T22:00:22.035Z,40.55
2023-05-08T22:02:57.774Z,40.55
2023-05-08T22:05:38.439Z,40.57
2023-05-08T22:08:39.309Z,40.91
2023-05-08T22:11:09.500Z,40.92
2023-05-08T22:13:40.358Z,40.87
2023-05-08T22:16:26.109Z,40.98
2023-05-08T22:19:08.282Z,41.12
2023-05-08T22:21:44.371Z,41.02
2023-05-08T22:24:20.502Z,40.66
2023-05-08T22:27:02.339Z,40.80
2023-05-08T22:30:56.622Z,40.76
2023-05-08T22:33:34.108Z,40.86
2023-05-08T22:36:12.996Z,41.14
2023-05-08T22:38:46.260Z,41.47
2023-05-08T22:41:23.273Z,41.51
2023-05-08T22:44:34.908Z,41.62
2023-05-08T22:47:19.072Z,41.78
2023-05-08T22:50:00.823Z,41.85
2023-05-08T22:52:34.999Z,42.21
2023-05-08T22:55:22.564Z,42.17
2023-05-08T22:58:17.011Z,41.93
2023-05-08T23:00:56.529Z,41.92
2023-05-08T23:03:33.747Z,41.91
2023-05-08T23:06:11.507Z,42.20
2023-05-08T23:08:46.394Z,42.50
2023-05-08T23:11:27.316Z,42.50
2023-05-08T23:14:35.414Z,42.55
2023-05-08T23:20:43.141Z,42.95
2023-05-08T23:23:34.054Z,43.82
2023-05-08T23:26:09.198Z,44.60
2023-05-08T23:28:40.630Z,44.79
2023-05-08T23:31:27.611Z,44.69
2023-05-08T23:34:03.981Z,44.46
2023-05-08T23:36:48.376Z,44.60
2023-05-08T23:39:51.636Z,44.60
2023-05-08T23:43:13.529Z,44.44
2023-05-08T23:45:48.947Z,44.26
2023-05-08T23:48:25.882Z,44.17
2023-05-08T23:50:59.939Z,43.92
2023-05-08T23:53:38.501Z,44.07
2023-05-08T23:56:37.796Z,43.99
2023-05-08T23:59:12.885Z,44.31
